Adelaide Aviation Weather

.

TAF YPAD 100525Z 1006/1112 35012KT 9999 -SHRA BKN030 FM101000 01010KT 9999 -SHRA FEW012 BKN020 FM110000 30008KT 9999 -SHRA BKN025 FM110600 25008KT 9999 NSW SCT025 INTER 1006/1100 5000 SHRA BKN012 RMK T 13 11 10 09 Q 1018 1019 1019 1018

TTF METAR YPAD 100730Z 35005KT 9999 FEW028 SCT070 BKN160 13/09 Q1018 RMK RF00.0/000.0 INTER 0730/1030 5000 SHRA BKN015

You can obtain an AWS computerised voice summary of the weather at these airports. Adelaide 08 8150 3800, Renmark 08 8150 3817, Mount Gambier 08 81503809, Port Lincoln 08 8150 3814.


Also the Bureau of Meteorology has an Adelaide weather radar here and the Graphical Area Forecast here